sensor_id;sensor_type;location;lat;lon;timestamp;pressure;altitude;pressure_sealevel;temperature;humidity
4617;BME280;2321;42.704;23.384;2023-02-01T00:38:55;95522.00;;;1.18;nan
4617;BME280;2321;42.704;23.384;2023-02-01T00:41:22;95524.03;;;1.14;nan
4617;BME280;2321;42.704;23.384;2023-02-01T00:43:50;95512.88;;;1.12;nan
4617;BME280;2321;42.704;23.384;2023-02-01T00:46:18;95523.09;;;1.15;nan
4617;BME280;2321;42.704;23.384;2023-02-01T00:48:48;95520.06;;;1.20;nan
4617;BME280;2321;42.704;23.384;2023-02-01T00:51:17;95515.53;;;1.22;nan
4617;BME280;2321;42.704;23.384;2023-02-01T00:53:44;95517.19;;;1.23;nan
4617;BME280;2321;42.704;23.384;2023-02-01T00:56:11;95517.34;;;1.22;nan
4617;BME280;2321;42.704;23.384;2023-02-01T00:58:39;95517.19;;;1.23;nan
4617;BME280;2321;42.704;23.384;2023-02-01T01:01:08;95519.25;;;1.19;nan
4617;BME280;2321;42.704;23.384;2023-02-01T01:03:37;95522.00;;;1.18;nan
4617;BME280;2321;42.704;23.384;2023-02-01T01:06:07;95512.34;;;1.18;nan
4617;BME280;2321;42.704;23.384;2023-02-01T01:08:35;95516.06;;;1.16;nan
4617;BME280;2321;42.704;23.384;2023-02-01T01:11:07;95515.50;;;1.12;nan
4617;BME280;2321;42.704;23.384;2023-02-01T01:13:34;95507.31;;;1.05;nan
4617;BME280;2321;42.704;23.384;2023-02-01T01:16:01;95507.47;;;1.14;nan
4617;BME280;2321;42.704;23.384;2023-02-01T01:18:29;95504.31;;;1.10;nan
4617;BME280;2321;42.704;23.384;2023-02-01T01:20:56;95523.22;;;1.14;nan
4617;BME280;2321;42.704;23.384;2023-02-01T01:23:25;95518.94;;;1.13;nan
4617;BME280;2321;42.704;23.384;2023-02-01T01:25:52;95512.03;;;1.12;nan
4617;BME280;2321;42.704;23.384;2023-02-01T01:28:19;95507.47;;;1.14;nan
4617;BME280;2321;42.704;23.384;2023-02-01T01:30:46;95509.03;;;1.16;nan
4617;BME280;2321;42.704;23.384;2023-02-01T01:33:14;95514.66;;;1.12;nan
4617;BME280;2321;42.704;23.384;2023-02-01T01:35:41;95518.22;;;1.11;nan
4617;BME280;2321;42.704;23.384;2023-02-01T01:38:08;95522.25;;;1.15;nan
4617;BME280;2321;42.704;23.384;2023-02-01T01:40:37;95530.81;;;1.17;nan
4617;BME280;2321;42.704;23.384;2023-02-01T01:43:13;95528.59;;;1.12;nan
4617;BME280;2321;42.704;23.384;2023-02-01T01:45:41;95523.47;;;1.11;nan
4617;BME280;2321;42.704;23.384;2023-02-01T01:48:12;95528.97;;;1.07;nan
4617;BME280;2321;42.704;23.384;2023-02-01T01:50:45;95523.88;;;1.06;nan
4617;BME280;2321;42.704;23.384;2023-02-01T01:53:18;95514.59;;;1.02;nan
4617;BME280;2321;42.704;23.384;2023-02-01T01:55:48;95521.38;;;1.04;nan
4617;BME280;2321;42.704;23.384;2023-02-01T01:58:19;95527.44;;;1.05;nan
4617;BME280;2321;42.704;23.384;2023-02-01T02:00:48;95530.47;;;1.00;nan
4617;BME280;2321;42.704;23.384;2023-02-01T02:03:18;95532.44;;;0.86;nan
4617;BME280;2321;42.704;23.384;2023-02-01T02:05:48;95519.72;;;0.82;nan
4617;BME280;2321;42.704;23.384;2023-02-01T02:08:18;95521.53;;;0.81;nan
4617;BME280;2321;42.704;23.384;2023-02-01T02:10:46;95522.03;;;0.75;nan
4617;BME280;2321;42.704;23.384;2023-02-01T02:13:31;95522.28;;;0.72;nan
4617;BME280;2321;42.704;23.384;2023-02-01T02:16:09;95523.13;;;0.72;nan
4617;BME280;2321;42.704;23.384;2023-02-01T02:18:45;95515.13;;;0.74;nan
4617;BME280;2321;42.704;23.384;2023-02-01T02:21:26;95519.56;;;0.73;nan
4617;BME280;2321;42.704;23.384;2023-02-01T02:27:17;95504.78;;;0.72;nan
4617;BME280;2321;42.704;23.384;2023-02-01T02:30:13;95520.34;;;0.74;nan
4617;BME280;2321;42.704;23.384;2023-02-01T02:35:46;95517.44;;;0.67;nan
4617;BME280;2321;42.704;23.384;2023-02-01T02:38:24;95514.81;;;0.67;nan
4617;BME280;2321;42.704;23.384;2023-02-01T02:41:03;95511.94;;;0.70;nan
4617;BME280;2321;42.704;23.384;2023-02-01T02:43:37;95519.91;;;0.69;nan
4617;BME280;2321;42.704;23.384;2023-02-01T02:46:30;95502.06;;;0.62;nan
4617;BME280;2321;42.704;23.384;2023-02-01T02:49:20;95506.19;;;0.55;nan
4617;BME280;2321;42.704;23.384;2023-02-01T02:51:53;95510.19;;;0.59;nan
4617;BME280;2321;42.704;23.384;2023-02-01T02:54:41;95508.41;;;0.60;nan
4617;BME280;2321;42.704;23.384;2023-02-01T02:57:19;95517.09;;;0.60;nan
4617;BME280;2321;42.704;23.384;2023-02-01T03:00:07;95517.22;;;0.59;nan
4617;BME280;2321;42.704;23.384;2023-02-01T03:02:53;95510.44;;;0.56;nan
4617;BME280;2321;42.704;23.384;2023-02-01T03:05:40;95517.47;;;0.56;nan
4617;BME280;2321;42.704;23.384;2023-02-01T03:08:14;95515.00;;;0.54;nan
4617;BME280;2321;42.704;23.384;2023-02-01T03:10:47;95514.47;;;0.60;nan
4617;BME280;2321;42.704;23.384;2023-02-01T03:13:22;95517.81;;;0.62;nan
4617;BME280;2321;42.704;23.384;2023-02-01T03:15:54;95525.28;;;0.67;nan
4617;BME280;2321;42.704;23.384;2023-02-01T03:18:28;95519.22;;;0.67;nan
4617;BME280;2321;42.704;23.384;2023-02-01T03:20:59;95523.22;;;0.71;nan
4617;BME280;2321;42.704;23.384;2023-02-01T03:23:32;95531.09;;;0.71;nan
4617;BME280;2321;42.704;23.384;2023-02-01T03:26:02;95536.91;;;0.74;nan
4617;BME280;2321;42.704;23.384;2023-02-01T03:28:31;95532.50;;;0.75;nan
4617;BME280;2321;42.704;23.384;2023-02-01T03:31:00;95541.78;;;0.79;nan
4617;BME280;2321;42.704;23.384;2023-02-01T03:33:28;95538.44;;;0.77;nan
4617;BME280;2321;42.704;23.384;2023-02-01T03:36:03;95553.13;;;0.80;nan
4617;BME280;2321;42.704;23.384;2023-02-01T03:38:38;95548.81;;;0.79;nan
4617;BME280;2321;42.704;23.384;2023-02-01T03:41:11;95551.19;;;0.82;nan
4617;BME280;2321;42.704;23.384;2023-02-01T03:43:49;95544.16;;;0.82;nan
4617;BME280;2321;42.704;23.384;2023-02-01T03:46:22;95542.50;;;0.81;nan
4617;BME280;2321;42.704;23.384;2023-02-01T03:48:54;95532.94;;;0.80;nan
4617;BME280;2321;42.704;23.384;2023-02-01T03:51:23;95539.88;;;0.81;nan
4617;BME280;2321;42.704;23.384;2023-02-01T03:53:53;95547.03;;;0.79;nan
4617;BME280;2321;42.704;23.384;2023-02-01T03:56:22;95542.63;;;0.80;nan
4617;BME280;2321;42.704;23.384;2023-02-01T03:58:51;95540.69;;;0.82;nan
4617;BME280;2321;42.704;23.384;2023-02-01T04:01:26;95551.78;;;0.85;nan
4617;BME280;2321;42.704;23.384;2023-02-01T04:03:53;95539.47;;;0.86;nan
4617;BME280;2321;42.704;23.384;2023-02-01T04:06:20;95541.84;;;0.89;nan
4617;BME280;2321;42.704;23.384;2023-02-01T04:08:47;95543.16;;;0.95;nan
4617;BME280;2321;42.704;23.384;2023-02-01T04:11:15;95533.47;;;0.95;nan
4617;BME280;2321;42.704;23.384;2023-02-01T04:13:42;95535.97;;;0.97;nan
4617;BME280;2321;42.704;23.384;2023-02-01T04:16:09;95534.75;;;1.01;nan
4617;BME280;2321;42.704;23.384;2023-02-01T04:18:36;95534.63;;;1.03;nan
4617;BME280;2321;42.704;23.384;2023-02-01T04:21:04;95540.69;;;1.03;nan
4617;BME280;2321;42.704;23.384;2023-02-01T04:23:31;95549.84;;;1.09;nan
4617;BME280;2321;42.704;23.384;2023-02-01T04:26:01;95544.72;;;1.07;nan
4617;BME280;2321;42.704;23.384;2023-02-01T04:28:30;95546.63;;;1.05;nan
4617;BME280;2321;42.704;23.384;2023-02-01T04:30:57;95545.19;;;1.13;nan
4617;BME280;2321;42.704;23.384;2023-02-01T04:33:24;95550.69;;;1.10;nan
4617;BME280;2321;42.704;23.384;2023-02-01T04:35:51;95555.53;;;1.14;nan
4617;BME280;2321;42.704;23.384;2023-02-01T04:38:18;95544.06;;;1.15;nan
4617;BME280;2321;42.704;23.384;2023-02-01T04:40:47;95540.63;;;1.15;nan
4617;BME280;2321;42.704;23.384;2023-02-01T04:43:14;95540.50;;;1.16;nan
4617;BME280;2321;42.704;23.384;2023-02-01T04:45:46;95543.56;;;1.22;nan
4617;BME280;2321;42.704;23.384;2023-02-01T04:48:14;95543.31;;;1.25;nan
4617;BME280;2321;42.704;23.384;2023-02-01T04:50:41;95544.84;;;1.27;nan
4617;BME280;2321;42.704;23.384;2023-02-01T04:53:08;95547.88;;;1.33;nan
4617;BME280;2321;42.704;23.384;2023-02-01T04:55:35;95547.19;;;1.30;nan
4617;BME280;2321;42.704;23.384;2023-02-01T04:58:02;95555.63;;;1.34;nan
4617;BME280;2321;42.704;23.384;2023-02-01T05:00:29;95559.38;;;1.32;nan
4617;BME280;2321;42.704;23.384;2023-02-01T05:02:57;95562.09;;;1.30;nan
4617;BME280;2321;42.704;23.384;2023-02-01T05:05:24;95561.00;;;1.33;nan
4617;BME280;2321;42.704;23.384;2023-02-01T05:07:51;95561.84;;;1.33;nan
4617;BME280;2321;42.704;23.384;2023-02-01T05:10:18;95584.63;;;1.33;nan
4617;BME280;2321;42.704;23.384;2023-02-01T05:12:46;95576.47;;;1.36;nan
4617;BME280;2321;42.704;23.384;2023-02-01T05:15:31;95584.75;;;1.31;nan
4617;BME280;2321;42.704;23.384;2023-02-01T05:17:59;95583.94;;;1.30;nan
4617;BME280;2321;42.704;23.384;2023-02-01T05:20:26;95585.13;;;1.26;nan
4617;BME280;2321;42.704;23.384;2023-02-01T05:22:53;95573.81;;;1.26;nan
4617;BME280;2321;42.704;23.384;2023-02-01T05:25:19;95582.75;;;1.23;nan
4617;BME280;2321;42.704;23.384;2023-02-01T05:27:46;95579.44;;;1.21;nan
4617;BME280;2321;42.704;23.384;2023-02-01T05:30:14;95570.88;;;1.19;nan
4617;BME280;2321;42.704;23.384;2023-02-01T05:32:41;95567.28;;;1.20;nan
4617;BME280;2321;42.704;23.384;2023-02-01T05:35:09;95572.84;;;1.27;nan
4617;BME280;2321;42.704;23.384;2023-02-01T05:37:36;95579.50;;;1.31;nan
4617;BME280;2321;42.704;23.384;2023-02-01T05:40:04;95574.69;;;1.36;nan
4617;BME280;2321;42.704;23.384;2023-02-01T05:42:31;95576.94;;;1.41;nan
4617;BME280;2321;42.704;23.384;2023-02-01T05:44:57;95582.88;;;1.43;nan
4617;BME280;2321;42.704;23.384;2023-02-01T05:47:24;95581.78;;;1.46;nan
4617;BME280;2321;42.704;23.384;2023-02-01T05:49:51;95581.66;;;1.47;nan
4617;BME280;2321;42.704;23.384;2023-02-01T05:52:20;95582.38;;;1.49;nan
4617;BME280;2321;42.704;23.384;2023-02-01T05:54:46;95576.03;;;1.52;nan
4617;BME280;2321;42.704;23.384;2023-02-01T05:57:13;95578.66;;;1.52;nan
4617;BME280;2321;42.704;23.384;2023-02-01T05:59:40;95587.94;;;1.56;nan
4617;BME280;2321;42.704;23.384;2023-02-01T06:02:10;95589.19;;;1.62;nan
4617;BME280;2321;42.704;23.384;2023-02-01T06:04:37;95587.53;;;1.61;nan
4617;BME280;2321;42.704;23.384;2023-02-01T06:07:04;95587.94;;;1.66;nan
4617;BME280;2321;42.704;23.384;2023-02-01T06:09:34;95565.25;;;1.55;nan
4617;BME280;2321;42.704;23.384;2023-02-01T06:12:01;95586.47;;;1.73;nan
4617;BME280;2321;42.704;23.384;2023-02-01T06:14:28;95591.72;;;1.73;nan
4617;BME280;2321;42.704;23.384;2023-02-01T06:16:55;95587.06;;;1.77;nan
4617;BME280;2321;42.704;23.384;2023-02-01T06:19:22;95590.94;;;1.83;nan
4617;BME280;2321;42.704;23.384;2023-02-01T06:21:49;95589.00;;;1.85;nan
4617;BME280;2321;42.704;23.384;2023-02-01T06:24:16;95587.91;;;1.88;nan
4617;BME280;2321;42.704;23.384;2023-02-01T06:26:44;95595.41;;;1.92;nan
4617;BME280;2321;42.704;23.384;2023-02-01T06:29:12;95590.97;;;1.93;nan
4617;BME280;2321;42.704;23.384;2023-02-01T06:31:39;95583.09;;;1.93;nan
4617;BME280;2321;42.704;23.384;2023-02-01T06:34:08;95583.38;;;2.00;nan
4617;BME280;2321;42.704;23.384;2023-02-01T06:36:35;95589.91;;;2.05;nan
4617;BME280;2321;42.704;23.384;2023-02-01T06:39:01;95593.09;;;2.09;nan
4617;BME280;2321;42.704;23.384;2023-02-01T06:41:29;95596.41;;;2.11;nan
4617;BME280;2321;42.704;23.384;2023-02-01T06:43:57;95599.47;;;2.16;nan
4617;BME280;2321;42.704;23.384;2023-02-01T06:46:24;95611.38;;;2.21;nan
4617;BME280;2321;42.704;23.384;2023-02-01T06:48:51;95600.88;;;2.21;nan
4617;BME280;2321;42.704;23.384;2023-02-01T06:51:22;95606.81;;;2.23;nan
4617;BME280;2321;42.704;23.384;2023-02-01T06:53:49;95613.75;;;2.24;nan
4617;BME280;2321;42.704;23.384;2023-02-01T06:56:16;95613.59;;;2.25;nan
4617;BME280;2321;42.704;23.384;2023-02-01T06:58:44;95614.84;;;2.31;nan
4617;BME280;2321;42.704;23.384;2023-02-01T07:01:12;95614.84;;;2.31;nan
4617;BME280;2321;42.704;23.384;2023-02-01T07:03:39;95615.94;;;2.28;nan
4617;BME280;2321;42.704;23.384;2023-02-01T07:06:07;95631.72;;;2.28;nan
4617;BME280;2321;42.704;23.384;2023-02-01T07:08:36;95628.00;;;2.31;nan
4617;BME280;2321;42.704;23.384;2023-02-01T07:11:04;95637.66;;;2.31;nan
4617;BME280;2321;42.704;23.384;2023-02-01T07:13:31;95630.75;;;2.30;nan
4617;BME280;2321;42.704;23.384;2023-02-01T07:15:59;95633.94;;;2.33;nan
4617;BME280;2321;42.704;23.384;2023-02-01T07:18:28;95637.28;;;2.35;nan
4617;BME280;2321;42.704;23.384;2023-02-01T07:20:55;95645.84;;;2.37;nan
4617;BME280;2321;42.704;23.384;2023-02-01T07:23:23;95652.78;;;2.38;nan
4617;BME280;2321;42.704;23.384;2023-02-01T07:25:53;95656.25;;;2.39;nan
4617;BME280;2321;42.704;23.384;2023-02-01T07:28:20;95647.25;;;2.42;nan
4617;BME280;2321;42.704;23.384;2023-02-01T07:30:47;95655.56;;;2.47;nan
4617;BME280;2321;42.704;23.384;2023-02-01T07:33:18;95652.78;;;2.48;nan
4617;BME280;2321;42.704;23.384;2023-02-01T07:35:48;95658.88;;;2.49;nan
4617;BME280;2321;42.704;23.384;2023-02-01T07:38:16;95652.66;;;2.50;nan
4617;BME280;2321;42.704;23.384;2023-02-01T07:40:43;95659.44;;;2.53;nan
4617;BME280;2321;42.704;23.384;2023-02-01T07:43:10;95660.97;;;2.55;nan
4617;BME280;2321;42.704;23.384;2023-02-01T07:45:37;95662.34;;;2.59;nan
4617;BME280;2321;42.704;23.384;2023-02-01T07:48:04;95672.47;;;2.64;nan
4617;BME280;2321;42.704;23.384;2023-02-01T07:50:31;95668.19;;;2.63;nan
4617;BME280;2321;42.704;23.384;2023-02-01T07:53:00;95663.75;;;2.64;nan
4617;BME280;2321;42.704;23.384;2023-02-01T07:55:27;95675.91;;;2.65;nan
4617;BME280;2321;42.704;23.384;2023-02-01T07:57:57;95688.13;;;2.66;nan
4617;BME280;2321;42.704;23.384;2023-02-01T08:00:25;95681.75;;;2.68;nan
4617;BME280;2321;42.704;23.384;2023-02-01T08:03:13;95687.97;;;2.67;nan
4617;BME280;2321;42.704;23.384;2023-02-01T08:05:42;95683.69;;;2.66;nan
4617;BME280;2321;42.704;23.384;2023-02-01T08:08:10;95697.25;;;2.71;nan
4617;BME280;2321;42.704;23.384;2023-02-01T08:10:38;95695.19;;;2.75;nan
4617;BME280;2321;42.704;23.384;2023-02-01T08:13:05;95692.03;;;2.81;nan
4617;BME280;2321;42.704;23.384;2023-02-01T08:15:32;95681.78;;;2.78;nan
4617;BME280;2321;42.704;23.384;2023-02-01T08:17:58;95678.16;;;2.79;nan
4617;BME280;2321;42.704;23.384;2023-02-01T08:20:27;95688.41;;;2.92;nan
4617;BME280;2321;42.704;23.384;2023-02-01T08:22:54;95682.88;;;2.96;nan
4617;BME280;2321;42.704;23.384;2023-02-01T08:25:23;95694.09;;;2.98;nan
4617;BME280;2321;42.704;23.384;2023-02-01T08:27:54;95685.94;;;3.01;nan
4617;BME280;2321;42.704;23.384;2023-02-01T08:30:21;95696.44;;;3.01;nan
4617;BME280;2321;42.704;23.384;2023-02-01T08:32:48;95689.41;;;3.01;nan
4617;BME280;2321;42.704;23.384;2023-02-01T08:35:15;95697.00;;;3.04;nan
4617;BME280;2321;42.704;23.384;2023-02-01T08:37:42;95692.59;;;3.05;nan
4617;BME280;2321;42.704;23.384;2023-02-01T08:40:09;95686.91;;;3.10;nan
4617;BME280;2321;42.704;23.384;2023-02-01T08:42:38;95692.88;;;3.12;nan
4617;BME280;2321;42.704;23.384;2023-02-01T08:45:17;95692.06;;;3.21;nan
4617;BME280;2321;42.704;23.384;2023-02-01T08:47:45;95688.03;;;3.27;nan
4617;BME280;2321;42.704;23.384;2023-02-01T08:50:12;95683.16;;;3.32;nan
4617;BME280;2321;42.704;23.384;2023-02-01T08:52:39;95677.50;;;3.37;nan
4617;BME280;2321;42.704;23.384;2023-02-01T08:55:07;95679.84;;;3.40;nan
4617;BME280;2321;42.704;23.384;2023-02-01T08:57:34;95687.03;;;3.48;nan
4617;BME280;2321;42.704;23.384;2023-02-01T09:00:03;95681.50;;;3.51;nan
4617;BME280;2321;42.704;23.384;2023-02-01T09:02:31;95683.84;;;3.54;nan
4617;BME280;2321;42.704;23.384;2023-02-01T09:04:58;95685.53;;;3.55;nan
4617;BME280;2321;42.704;23.384;2023-02-01T09:07:24;95692.72;;;3.53;nan
4617;BME280;2321;42.704;23.384;2023-02-01T09:09:51;95694.78;;;3.59;nan
4617;BME280;2321;42.704;23.384;2023-02-01T09:12:20;95697.97;;;3.63;nan
4617;BME280;2321;42.704;23.384;2023-02-01T09:14:46;95702.56;;;3.61;nan
4617;BME280;2321;42.704;23.384;2023-02-01T09:17:15;95703.38;;;3.62;nan
4617;BME280;2321;42.704;23.384;2023-02-01T09:23:23;95702.13;;;3.66;nan
4617;BME280;2321;42.704;23.384;2023-02-01T09:25:50;95700.72;;;3.72;nan
4617;BME280;2321;42.704;23.384;2023-02-01T09:28:17;95700.56;;;3.83;nan
4617;BME280;2321;42.704;23.384;2023-02-01T09:30:45;95696.94;;;3.84;nan
4617;BME280;2321;42.704;23.384;2023-02-01T09:33:13;95694.03;;;3.87;nan
4617;BME280;2321;42.704;23.384;2023-02-01T09:35:43;95689.03;;;3.94;nan
4617;BME280;2321;42.704;23.384;2023-02-01T09:38:09;95684.03;;;4.01;nan
4617;BME280;2321;42.704;23.384;2023-02-01T09:40:42;95695.78;;;4.07;nan
4617;BME280;2321;42.704;23.384;2023-02-01T09:43:24;95675.28;;;4.00;nan
4617;BME280;2321;42.704;23.384;2023-02-01T09:46:03;95678.47;;;4.04;nan
4617;BME280;2321;42.704;23.384;2023-02-01T09:48:39;95671.41;;;4.05;nan
4617;BME280;2321;42.704;23.384;2023-02-01T09:51:15;95672.38;;;4.03;nan
4617;BME280;2321;42.704;23.384;2023-02-01T09:53:44;95670.00;;;4.10;nan
4617;BME280;2321;42.704;23.384;2023-02-01T09:56:15;95653.88;;;4.13;nan
4617;BME280;2321;42.704;23.384;2023-02-01T09:58:49;95653.31;;;4.20;nan
4617;BME280;2321;42.704;23.384;2023-02-01T10:01:20;95649.53;;;4.22;nan
4617;BME280;2321;42.704;23.384;2023-02-01T10:03:50;95654.78;;;4.32;nan
4617;BME280;2321;42.704;23.384;2023-02-01T10:06:35;95651.16;;;4.33;nan
4617;BME280;2321;42.704;23.384;2023-02-01T10:09:22;95648.88;;;4.39;nan
4617;BME280;2321;42.704;23.384;2023-02-01T10:12:12;95620.00;;;4.19;nan
4617;BME280;2321;42.704;23.384;2023-02-01T10:14:56;95658.75;;;4.36;nan
4617;BME280;2321;42.704;23.384;2023-02-01T10:17:37;95630.94;;;4.24;nan
4617;BME280;2321;42.704;23.384;2023-02-01T10:20:16;95639.72;;;4.43;nan
4617;BME280;2321;42.704;23.384;2023-02-01T10:22:53;95637.09;;;4.43;nan
4617;BME280;2321;42.704;23.384;2023-02-01T10:25:28;95629.84;;;4.45;nan
4617;BME280;2321;42.704;23.384;2023-02-01T10:28:00;95627.06;;;4.46;nan
4617;BME280;2321;42.704;23.384;2023-02-01T10:30:31;95620.38;;;4.52;nan
4617;BME280;2321;42.704;23.384;2023-02-01T10:33:14;95614.06;;;4.63;nan
4617;BME280;2321;42.704;23.384;2023-02-01T10:35:44;95595.59;;;4.82;nan
4617;BME280;2321;42.704;23.384;2023-02-01T10:38:17;95604.13;;;5.12;nan
4617;BME280;2321;42.704;23.384;2023-02-01T10:40:47;95604.19;;;5.20;nan
4617;BME280;2321;42.704;23.384;2023-02-01T10:43:14;95600.84;;;5.18;nan
4617;BME280;2321;42.704;23.384;2023-02-01T10:45:42;95609.47;;;5.20;nan
4617;BME280;2321;42.704;23.384;2023-02-01T10:48:09;95603.66;;;5.17;nan
4617;BME280;2321;42.704;23.384;2023-02-01T10:50:40;95597.53;;;5.16;nan
4617;BME280;2321;42.704;23.384;2023-02-01T10:53:16;95579.88;;;5.17;nan
4617;BME280;2321;42.704;23.384;2023-02-01T10:55:47;95594.50;;;5.29;nan
4617;BME280;2321;42.704;23.384;2023-02-01T10:58:17;95597.19;;;5.38;nan
4617;BME280;2321;42.704;23.384;2023-02-01T11:00:47;95587.09;;;5.33;nan
4617;BME280;2321;42.704;23.384;2023-02-01T11:03:39;95581.66;;;5.34;nan
4617;BME280;2321;42.704;23.384;2023-02-01T11:06:13;95582.50;;;5.35;nan
4617;BME280;2321;42.704;23.384;2023-02-01T11:08:48;95591.69;;;5.31;nan
4617;BME280;2321;42.704;23.384;2023-02-01T11:11:17;95587.47;;;5.38;nan
4617;BME280;2321;42.704;23.384;2023-02-01T11:13:44;95586.75;;;5.54;nan
4617;BME280;2321;42.704;23.384;2023-02-01T11:16:12;95574.41;;;5.63;nan
4617;BME280;2321;42.704;23.384;2023-02-01T11:18:41;95565.91;;;5.78;nan
4617;BME280;2321;42.704;23.384;2023-02-01T11:21:09;95580.50;;;5.91;nan
4617;BME280;2321;42.704;23.384;2023-02-01T16:51:33;95541.66;;;5.48;nan
4617;BME280;2321;42.704;23.384;2023-02-01T16:54:00;95544.63;;;5.53;nan
4617;BME280;2321;42.704;23.384;2023-02-01T16:56:30;95539.53;;;5.51;nan
4617;BME280;2321;42.704;23.384;2023-02-01T16:58:58;95534.88;;;5.45;nan
4617;BME280;2321;42.704;23.384;2023-02-01T17:01:25;95549.78;;;5.54;nan
4617;BME280;2321;42.704;23.384;2023-02-01T17:03:52;95544.50;;;5.54;nan
4617;BME280;2321;42.704;23.384;2023-02-01T17:06:22;95540.34;;;5.52;nan
4617;BME280;2321;42.704;23.384;2023-02-01T17:08:55;95537.53;;;5.53;nan
4617;BME280;2321;42.704;23.384;2023-02-01T17:11:23;95545.31;;;5.55;nan
4617;BME280;2321;42.704;23.384;2023-02-01T17:13:50;95531.78;;;5.58;nan
4617;BME280;2321;42.704;23.384;2023-02-01T17:16:23;95530.81;;;5.59;nan
4617;BME280;2321;42.704;23.384;2023-02-01T17:18:55;95527.31;;;5.59;nan
4617;BME280;2321;42.704;23.384;2023-02-01T17:21:23;95542.00;;;5.53;nan
4617;BME280;2321;42.704;23.384;2023-02-01T17:23:52;95533.41;;;5.51;nan
4617;BME280;2321;42.704;23.384;2023-02-01T17:26:20;95525.16;;;5.54;nan
4617;BME280;2321;42.704;23.384;2023-02-01T17:28:46;95525.31;;;5.52;nan
4617;BME280;2321;42.704;23.384;2023-02-01T17:31:14;95522.03;;;5.59;nan
4617;BME280;2321;42.704;23.384;2023-02-01T17:33:42;95528.34;;;5.58;nan
4617;BME280;2321;42.704;23.384;2023-02-01T17:36:12;95529.81;;;5.60;nan
4617;BME280;2321;42.704;23.384;2023-02-01T17:38:39;95521.91;;;5.60;nan
4617;BME280;2321;42.704;23.384;2023-02-01T17:41:10;95529.00;;;5.60;nan
4617;BME280;2321;42.704;23.384;2023-02-01T17:43:38;95517.28;;;5.62;nan
4617;BME280;2321;42.704;23.384;2023-02-01T17:46:09;95525.19;;;5.62;nan
4617;BME280;2321;42.704;23.384;2023-02-01T17:48:37;95512.47;;;5.58;nan
4617;BME280;2321;42.704;23.384;2023-02-01T17:51:04;95502.38;;;5.53;nan
4617;BME280;2321;42.704;23.384;2023-02-01T17:53:31;95511.13;;;5.53;nan
4617;BME280;2321;42.704;23.384;2023-02-01T17:56:00;95516.28;;;5.55;nan
4617;BME280;2321;42.704;23.384;2023-02-01T17:58:28;95516.41;;;5.53;nan
4617;BME280;2321;42.704;23.384;2023-02-01T18:00:57;95525.63;;;5.49;nan
4617;BME280;2321;42.704;23.384;2023-02-01T18:03:26;95534.16;;;5.43;nan
4617;BME280;2321;42.704;23.384;2023-02-01T18:05:54;95540.03;;;5.28;nan
4617;BME280;2321;42.704;23.384;2023-02-01T18:08:22;95536.09;;;5.06;nan
4617;BME280;2321;42.704;23.384;2023-02-01T18:10:50;95531.00;;;4.86;nan
4617;BME280;2321;42.704;23.384;2023-02-01T18:13:19;95536.06;;;4.61;nan
4617;BME280;2321;42.704;23.384;2023-02-01T18:15:47;95537.13;;;4.50;nan
4617;BME280;2321;42.704;23.384;2023-02-01T18:18:14;95525.97;;;4.38;nan
4617;BME280;2321;42.704;23.384;2023-02-01T18:20:42;95529.16;;;4.41;nan
4617;BME280;2321;42.704;23.384;2023-02-01T18:23:17;95527.41;;;4.32;nan
4617;BME280;2321;42.704;23.384;2023-02-01T18:25:45;95523.31;;;4.19;nan
4617;BME280;2321;42.704;23.384;2023-02-01T18:28:13;95522.00;;;4.05;nan
4617;BME280;2321;42.704;23.384;2023-02-01T18:30:41;95515.78;;;4.06;nan
4617;BME280;2321;42.704;23.384;2023-02-01T18:33:12;95519.47;;;4.13;nan
4617;BME280;2321;42.704;23.384;2023-02-01T18:35:40;95513.91;;;4.17;nan
4617;BME280;2321;42.704;23.384;2023-02-01T18:38:07;95518.06;;;4.19;nan
4617;BME280;2321;42.704;23.384;2023-02-01T18:40:38;95519.84;;;4.19;nan
4617;BME280;2321;42.704;23.384;2023-02-01T18:43:05;95511.41;;;4.15;nan
4617;BME280;2321;42.704;23.384;2023-02-01T18:45:35;95512.91;;;4.18;nan
4617;BME280;2321;42.704;23.384;2023-02-01T18:48:03;95514.50;;;4.10;nan
4617;BME280;2321;42.704;23.384;2023-02-01T18:50:33;95512.38;;;4.14;nan
4617;BME280;2321;42.704;23.384;2023-02-01T18:53:02;95507.09;;;4.14;nan
4617;BME280;2321;42.704;23.384;2023-02-01T18:55:30;95497.28;;;4.16;nan
4617;BME280;2321;42.704;23.384;2023-02-01T18:57:58;95476.13;;;4.08;nan
4617;BME280;2321;42.704;23.384;2023-02-01T19:00:26;95485.06;;;4.15;nan
4617;BME280;2321;42.704;23.384;2023-02-01T19:02:54;95487.41;;;4.18;nan
4617;BME280;2321;42.704;23.384;2023-02-01T19:05:21;95483.19;;;4.25;nan
4617;BME280;2321;42.704;23.384;2023-02-01T19:07:49;95482.59;;;4.32;nan
4617;BME280;2321;42.704;23.384;2023-02-01T19:10:18;95478.75;;;4.26;nan
4617;BME280;2321;42.704;23.384;2023-02-01T19:12:46;95491.53;;;4.21;nan
4617;BME280;2321;42.704;23.384;2023-02-01T19:15:14;95495.34;;;4.08;nan
4617;BME280;2321;42.704;23.384;2023-02-01T19:17:43;95483.03;;;4.09;nan
4617;BME280;2321;42.704;23.384;2023-02-01T19:20:13;95492.59;;;4.10;nan
4617;BME280;2321;42.704;23.384;2023-02-01T19:22:40;95490.09;;;4.08;nan
4617;BME280;2321;42.704;23.384;2023-02-01T19:25:12;95494.84;;;4.05;nan
4617;BME280;2321;42.704;23.384;2023-02-01T19:27:39;95493.72;;;4.07;nan
4617;BME280;2321;42.704;23.384;2023-02-01T19:30:08;95470.50;;;3.92;nan
4617;BME280;2321;42.704;23.384;2023-02-01T19:32:36;95494.63;;;3.98;nan
4617;BME280;2321;42.704;23.384;2023-02-01T19:35:03;95499.19;;;3.96;nan
4617;BME280;2321;42.704;23.384;2023-02-01T19:37:30;95496.34;;;3.89;nan
4617;BME280;2321;42.704;23.384;2023-02-01T19:39:57;95495.34;;;3.90;nan
4617;BME280;2321;42.704;23.384;2023-02-01T19:42:26;95493.16;;;3.85;nan
4617;BME280;2321;42.704;23.384;2023-02-01T19:44:54;95502.19;;;3.83;nan
4617;BME280;2321;42.704;23.384;2023-02-01T19:47:21;95493.44;;;3.82;nan
4617;BME280;2321;42.704;23.384;2023-02-01T19:49:48;95496.47;;;3.87;nan
4617;BME280;2321;42.704;23.384;2023-02-01T19:52:15;95495.63;;;3.87;nan
4617;BME280;2321;42.704;23.384;2023-02-01T19:54:42;95497.75;;;3.83;nan
4617;BME280;2321;42.704;23.384;2023-02-01T19:57:08;95493.59;;;3.80;nan
4617;BME280;2321;42.704;23.384;2023-02-01T19:59:37;95484.19;;;3.78;nan
4617;BME280;2321;42.704;23.384;2023-02-01T20:02:04;95491.03;;;3.70;nan
4617;BME280;2321;42.704;23.384;2023-02-01T20:04:31;95487.69;;;3.68;nan
4617;BME280;2321;42.704;23.384;2023-02-01T20:06:57;95491.25;;;3.77;nan
4617;BME280;2321;42.704;23.384;2023-02-01T20:09:26;95489.53;;;3.68;nan
4617;BME280;2321;42.704;23.384;2023-02-01T20:11:54;95497.63;;;3.75;nan
4617;BME280;2321;42.704;23.384;2023-02-01T20:14:23;95485.75;;;3.70;nan